createdAt,value
2022-09-26T00:01:13.569Z,100543.98
2022-09-26T00:04:48.663Z,100540.28
2022-09-26T00:08:25.646Z,100533.78
2022-09-26T00:12:02.896Z,100531.68
2022-09-26T00:15:39.052Z,100526.79
2022-09-26T00:19:18.244Z,100523.64
2022-09-26T00:22:52.762Z,100516.09
2022-09-26T00:26:31.555Z,100515.59
2022-09-26T00:30:08.657Z,100511.04
2022-09-26T00:33:43.236Z,100507.54
2022-09-26T00:37:19.677Z,100505.63
2022-09-26T00:40:56.720Z,100503.70
2022-09-26T00:48:24.176Z,100490.89
2022-09-26T00:52:06.419Z,100487.73
2022-09-26T00:55:43.162Z,100482.66
2022-09-26T00:59:22.637Z,100480.56
2022-09-26T01:02:53.080Z,100479.70
2022-09-26T01:06:28.135Z,100485.48
2022-09-26T01:10:05.698Z,100479.32
2022-09-26T01:13:43.857Z,100463.32
2022-09-26T01:17:18.219Z,100460.67
2022-09-26T01:21:16.235Z,100458.90
2022-09-26T01:24:46.543Z,100460.46
2022-09-26T01:28:26.686Z,100456.60
2022-09-26T01:32:22.678Z,100453.23
2022-09-26T01:35:32.289Z,100448.27
2022-09-26T01:39:13.476Z,100445.23
2022-09-26T01:43:00.170Z,100441.64
2022-09-26T01:46:29.875Z,100442.30
2022-09-26T01:50:08.596Z,100438.36
2022-09-26T01:53:40.683Z,100439.00
2022-09-26T01:57:08.576Z,100424.73
2022-09-26T02:00:43.776Z,100420.45
2022-09-26T02:04:25.561Z,100418.48
2022-09-26T02:08:11.716Z,100417.92
2022-09-26T02:11:30.324Z,100411.55
2022-09-26T02:15:11.336Z,100412.41
2022-09-26T02:19:05.684Z,100411.15
2022-09-26T02:22:20.406Z,100416.56
2022-09-26T02:29:34.554Z,100420.20
2022-09-26T02:33:10.885Z,100424.22
2022-09-26T02:36:47.684Z,100420.51
2022-09-26T02:40:33.184Z,100415.75
2022-09-26T02:44:25.721Z,100412.91
2022-09-26T02:48:15.524Z,100412.02
2022-09-26T02:51:40.294Z,100406.25
2022-09-26T02:55:36.719Z,100401.84
2022-09-26T02:59:22.641Z,100392.86
2022-09-26T03:02:32.288Z,100386.16
2022-09-26T03:06:00.012Z,100373.52
2022-09-26T03:09:37.407Z,100377.96
2022-09-26T03:13:14.994Z,100381.52
2022-09-26T03:16:51.667Z,100378.02
2022-09-26T03:20:26.476Z,100379.61
2022-09-26T03:24:03.167Z,100377.88
2022-09-26T03:28:01.637Z,100370.48
2022-09-26T03:31:16.348Z,100363.80
2022-09-26T03:34:52.998Z,100355.92
2022-09-26T03:38:29.713Z,100358.38
2022-09-26T03:42:06.696Z,100354.16
2022-09-26T03:45:43.381Z,100345.38
2022-09-26T03:49:20.762Z,100341.19
2022-09-26T03:52:57.024Z,100340.84
2022-09-26T03:56:33.826Z,100330.43
2022-09-26T04:00:11.566Z,100329.01
2022-09-26T04:03:50.839Z,100323.73
2022-09-26T04:07:25.310Z,100323.71
2022-09-26T04:11:02.873Z,100318.25
2022-09-26T04:14:37.737Z,100319.29
2022-09-26T04:18:14.595Z,100320.17
2022-09-26T04:21:52.284Z,100316.69
2022-09-26T04:25:28.042Z,100318.63
2022-09-26T04:29:05.384Z,100314.39
2022-09-26T04:32:41.705Z,100312.98
2022-09-26T04:36:19.416Z,100311.23
2022-09-26T04:39:55.617Z,100306.66
2022-09-26T04:43:32.247Z,100299.27
2022-09-26T04:47:08.797Z,100297.00
2022-09-26T04:50:48.085Z,100290.14
2022-09-26T04:54:24.362Z,100293.86
2022-09-26T04:58:02.508Z,100287.17
2022-09-26T05:01:38.263Z,100286.47
2022-09-26T05:05:15.731Z,100281.20
2022-09-26T05:08:51.784Z,100276.45
2022-09-26T05:12:28.348Z,100276.11
2022-09-26T05:16:25.147Z,100276.26
2022-09-26T05:19:43.173Z,100273.79
2022-09-26T05:23:45.108Z,100267.98
2022-09-26T05:26:56.058Z,100264.91
2022-09-26T05:30:32.291Z,100261.82
2022-09-26T05:34:16.895Z,100263.73
2022-09-26T05:38:05.388Z,100264.53
2022-09-26T05:41:22.870Z,100267.85
2022-09-26T05:45:02.234Z,100269.71
2022-09-26T05:48:38.185Z,100267.71
2022-09-26T05:52:13.080Z,100266.40
2022-09-26T05:55:52.881Z,100264.75
2022-09-26T05:59:26.985Z,100261.20
2022-09-26T06:03:03.885Z,100253.27
2022-09-26T06:06:40.144Z,100249.34
2022-09-26T06:10:17.832Z,100244.75
2022-09-26T06:13:55.947Z,100242.42
2022-09-26T06:17:32.960Z,100239.27
2022-09-26T06:21:09.980Z,100240.76
2022-09-26T06:24:43.979Z,100248.14
2022-09-26T06:28:21.017Z,100256.58
2022-09-26T06:31:57.785Z,100263.76
2022-09-26T06:35:34.866Z,100265.70
2022-09-26T06:39:11.383Z,100266.10
2022-09-26T06:42:48.785Z,100275.89
2022-09-26T06:46:25.090Z,100281.05
2022-09-26T06:50:02.386Z,100278.85
2022-09-26T06:53:40.346Z,100282.60
2022-09-26T06:57:18.003Z,100276.94
2022-09-26T07:00:52.394Z,100280.09
2022-09-26T07:04:29.921Z,100273.07
2022-09-26T07:08:06.020Z,100273.36
2022-09-26T07:12:12.921Z,100273.42
2022-09-26T07:15:20.866Z,100272.32
2022-09-26T07:18:58.356Z,100272.31
2022-09-26T07:22:32.873Z,100275.91
2022-09-26T07:26:09.898Z,100268.54
2022-09-26T07:29:47.466Z,100267.08
2022-09-26T07:33:24.188Z,100269.84
2022-09-26T07:37:00.094Z,100264.20
2022-09-26T07:40:36.899Z,100264.56
2022-09-26T07:48:09.067Z,100259.98
2022-09-26T07:51:32.644Z,100259.64
2022-09-26T07:55:07.420Z,100259.83
2022-09-26T07:58:43.900Z,100261.92
2022-09-26T08:02:34.419Z,100257.63
2022-09-26T08:05:58.917Z,100264.69
2022-09-26T08:09:33.288Z,100269.84
2022-09-26T08:13:09.775Z,100271.48
2022-09-26T08:16:46.965Z,100270.35
2022-09-26T08:20:46.790Z,100276.77
2022-09-26T08:24:00.245Z,100267.58
2022-09-26T08:27:37.348Z,100272.90
2022-09-26T08:31:14.169Z,100265.55
2022-09-26T08:34:53.180Z,100271.32
2022-09-26T08:38:27.658Z,100271.66
2022-09-26T08:42:12.075Z,100272.23
2022-09-26T08:46:10.502Z,100273.36
2022-09-26T08:49:43.112Z,100277.69
2022-09-26T08:53:34.157Z,100277.09
2022-09-26T08:57:02.089Z,100279.11
2022-09-26T09:00:33.800Z,100281.52
2022-09-26T09:04:15.720Z,100278.43
2022-09-26T09:07:45.495Z,100278.36
2022-09-26T09:11:38.483Z,100277.60
2022-09-26T09:15:31.991Z,100277.95
2022-09-26T09:19:29.919Z,100277.86
2022-09-26T09:23:00.463Z,100273.98
2022-09-26T09:30:38.346Z,100275.65
2022-09-26T09:34:26.926Z,100275.80
2022-09-26T09:37:53.778Z,100274.85
2022-09-26T09:41:36.355Z,100273.77
2022-09-26T09:45:17.604Z,100274.63
2022-09-26T09:48:40.985Z,100271.61
2022-09-26T09:52:45.378Z,100280.08
2022-09-26T09:56:46.043Z,100285.13
2022-09-26T10:00:07.705Z,100286.14
2022-09-26T10:03:35.078Z,100282.41
2022-09-26T10:07:02.169Z,100283.88
2022-09-26T10:11:13.167Z,100284.08
2022-09-26T10:14:55.373Z,100282.75
2022-09-26T10:18:25.598Z,100278.42
2022-09-26T10:21:59.797Z,100283.71
2022-09-26T10:25:35.699Z,100284.65
2022-09-26T10:29:34.288Z,100283.38
2022-09-26T10:36:40.418Z,100281.52
2022-09-26T10:40:51.141Z,100280.95
2022-09-26T10:43:56.412Z,100283.71
2022-09-26T10:47:48.670Z,100276.06
2022-09-26T10:51:24.996Z,100274.89
2022-09-26T10:58:30.144Z,100272.61
2022-09-26T11:02:14.576Z,100268.54
2022-09-26T11:06:04.065Z,100265.96
2022-09-26T11:09:20.922Z,100271.34
2022-09-26T11:13:02.999Z,100269.24
2022-09-26T11:16:53.844Z,100270.72
2022-09-26T11:20:20.908Z,100271.29
2022-09-26T11:23:54.020Z,100268.70
2022-09-26T11:27:48.877Z,100266.39
2022-09-26T11:31:10.231Z,100265.24
2022-09-26T11:34:41.174Z,100264.88
2022-09-26T11:38:41.761Z,100260.56
2022-09-26T11:42:27.846Z,100262.08
2022-09-26T11:45:52.076Z,100260.09
2022-09-26T11:49:48.817Z,100260.12
2022-09-26T11:53:53.576Z,100260.96
2022-09-26T11:57:33.255Z,100261.85
2022-09-26T12:01:08.218Z,100262.27
2022-09-26T12:04:35.802Z,100263.14
2022-09-26T12:08:36.342Z,100263.52
2022-09-26T12:12:00.233Z,100261.01
2022-09-26T12:15:31.324Z,100258.46
2022-09-26T12:19:05.440Z,100254.77
2022-09-26T12:22:37.561Z,100256.25
2022-09-26T12:26:11.236Z,100255.77
2022-09-26T12:29:59.700Z,100257.77
2022-09-26T12:33:39.534Z,100256.39
2022-09-26T12:37:39.577Z,100255.16
2022-09-26T12:40:52.397Z,100250.48
2022-09-26T12:44:22.752Z,100248.48
2022-09-26T12:48:33.778Z,100245.92
2022-09-26T12:51:52.422Z,100244.58
2022-09-26T12:55:37.687Z,100246.67
2022-09-26T12:59:38.671Z,100246.92
2022-09-26T13:03:17.168Z,100247.31
2022-09-26T13:07:17.925Z,100241.24
2022-09-26T13:10:47.529Z,100239.09
2022-09-26T13:14:39.677Z,100244.06
2022-09-26T13:17:52.587Z,100240.52
2022-09-26T13:21:28.770Z,100240.52
2022-09-26T13:25:08.281Z,100240.05
2022-09-26T13:29:17.529Z,100239.30
2022-09-26T13:32:24.110Z,100235.12
2022-09-26T13:36:00.973Z,100241.59
2022-09-26T13:40:11.226Z,100238.25
2022-09-26T13:43:24.285Z,100236.95
2022-09-26T13:47:21.497Z,100238.65
2022-09-26T13:50:41.248Z,100241.06
2022-09-26T13:54:05.644Z,100235.39
2022-09-26T13:57:49.991Z,100237.95
2022-09-26T14:01:28.504Z,100241.88
2022-09-26T14:05:19.740Z,100244.19
2022-09-26T14:09:26.945Z,100241.98
2022-09-26T14:12:52.154Z,100241.69
2022-09-26T14:16:05.578Z,100239.53
2022-09-26T14:19:51.198Z,100238.10
2022-09-26T14:23:38.518Z,100236.19
2022-09-26T14:27:05.976Z,100235.05
2022-09-26T14:30:31.227Z,100233.95
2022-09-26T14:34:17.556Z,100233.59
2022-09-26T14:38:09.197Z,100232.02
2022-09-26T14:41:27.949Z,100229.80
2022-09-26T14:45:02.701Z,100227.63
2022-09-26T14:48:41.292Z,100227.96
2022-09-26T14:52:20.029Z,100229.47
2022-09-26T14:56:11.024Z,100229.96
2022-09-26T14:59:40.372Z,100230.28
2022-09-26T15:03:13.034Z,100233.98
2022-09-26T15:06:50.996Z,100231.14
2022-09-26T15:10:21.981Z,100228.38
2022-09-26T15:13:56.848Z,100227.90
2022-09-26T15:17:35.995Z,100226.39
2022-09-26T15:21:29.504Z,100224.73
2022-09-26T15:24:46.130Z,100224.16
2022-09-26T15:28:24.365Z,100224.77
2022-09-26T15:31:57.885Z,100218.66
2022-09-26T15:35:35.358Z,100217.06
2022-09-26T15:39:30.334Z,100213.17
2022-09-26T15:43:01.988Z,100209.66
2022-09-26T15:46:26.887Z,100209.60
2022-09-26T15:50:14.904Z,100211.89
2022-09-26T15:53:58.845Z,100219.15
2022-09-26T15:57:35.073Z,100219.08
2022-09-26T16:00:53.499Z,100212.34
2022-09-26T16:04:32.635Z,100215.34
2022-09-26T16:08:06.023Z,100216.96
2022-09-26T16:11:46.597Z,100216.46
2022-09-26T16:15:21.849Z,100215.80
2022-09-26T16:19:03.346Z,100213.02
2022-09-26T16:22:39.154Z,100214.15
2022-09-26T16:26:22.605Z,100211.19
2022-09-26T16:29:52.317Z,100205.45
2022-09-26T16:33:27.784Z,100206.45
2022-09-26T16:37:00.308Z,100211.84
2022-09-26T16:40:36.912Z,100212.98
2022-09-26T16:44:33.641Z,100207.82
2022-09-26T16:47:50.231Z,100211.73
2022-09-26T16:51:36.346Z,100207.02
2022-09-26T16:55:08.762Z,100206.09
2022-09-26T16:58:58.053Z,100209.66
2022-09-26T17:02:20.581Z,100205.73
2022-09-26T17:05:56.020Z,100208.23
2022-09-26T17:09:32.405Z,100210.67
2022-09-26T17:13:17.267Z,100210.06
2022-09-26T17:16:47.173Z,100207.38
2022-09-26T17:20:22.463Z,100206.82
2022-09-26T17:23:59.671Z,100209.06
2022-09-26T17:27:38.642Z,100202.83
2022-09-26T17:31:20.176Z,100202.11
2022-09-26T17:34:51.893Z,100193.28
2022-09-26T17:38:25.896Z,100193.67
2022-09-26T17:42:02.892Z,100197.45
2022-09-26T17:45:47.348Z,100196.34
2022-09-26T17:53:02.328Z,100197.89
2022-09-26T17:56:36.277Z,100194.23
2022-09-26T18:03:52.292Z,100191.61
2022-09-26T18:07:40.974Z,100188.10
2022-09-26T18:11:08.030Z,100183.37
2022-09-26T18:14:41.387Z,100180.80
2022-09-26T18:18:19.504Z,100180.55
2022-09-26T18:21:56.320Z,100179.45
2022-09-26T18:25:31.856Z,100172.39
2022-09-26T18:29:11.046Z,100167.96
2022-09-26T18:32:47.576Z,100164.42
2022-09-26T18:36:23.810Z,100160.13
2022-09-26T18:40:02.974Z,100163.43
2022-09-26T18:43:41.186Z,100163.48
2022-09-26T18:47:16.838Z,100157.98
2022-09-26T18:50:48.432Z,100152.73
2022-09-26T18:54:26.446Z,100150.30
2022-09-26T18:58:20.346Z,100150.05
2022-09-26T19:01:59.118Z,100151.43
2022-09-26T19:05:16.928Z,100142.00
2022-09-26T19:09:01.468Z,100137.66
2022-09-26T19:12:31.713Z,100136.27
2022-09-26T19:16:06.689Z,100134.87
2022-09-26T19:19:43.010Z,100131.84
2022-09-26T19:23:19.423Z,100127.21
2022-09-26T19:27:06.822Z,100121.70
2022-09-26T19:30:33.436Z,100122.36
2022-09-26T19:34:20.295Z,100116.16
2022-09-26T19:37:46.978Z,100119.31
2022-09-26T19:41:23.663Z,100123.84
2022-09-26T19:45:01.468Z,100129.73
2022-09-26T19:48:38.994Z,100132.81
2022-09-26T19:52:16.905Z,100140.14
2022-09-26T19:56:10.040Z,100139.95
2022-09-26T19:59:27.874Z,100146.56
2022-09-26T20:03:04.181Z,100149.87
2022-09-26T20:06:41.331Z,100153.08
2022-09-26T20:10:25.510Z,100154.52
2022-09-26T20:14:12.910Z,100166.20
2022-09-26T20:17:32.129Z,100158.63
2022-09-26T20:21:13.529Z,100162.55
2022-09-26T20:24:47.654Z,100157.74
2022-09-26T20:28:21.869Z,100149.64
2022-09-26T20:32:00.262Z,100154.35
2022-09-26T20:35:40.102Z,100150.90
2022-09-26T20:39:15.997Z,100142.77
2022-09-26T20:42:57.382Z,100139.48
2022-09-26T20:46:26.636Z,100135.59
2022-09-26T20:50:02.558Z,100131.02
2022-09-26T20:53:39.227Z,100127.75
2022-09-26T20:57:17.630Z,100122.25
2022-09-26T21:00:53.656Z,100121.88
2022-09-26T21:04:33.176Z,100111.16
2022-09-26T21:08:14.477Z,100109.19
2022-09-26T21:11:43.528Z,100109.35
2022-09-26T21:15:21.520Z,100107.82
2022-09-26T21:18:57.075Z,100108.23
2022-09-26T21:22:37.156Z,100102.28
2022-09-26T21:26:18.430Z,100103.85
2022-09-26T21:29:47.389Z,100099.63
2022-09-26T21:33:26.441Z,100100.33
2022-09-26T21:37:03.917Z,100104.92
2022-09-26T21:40:40.206Z,100100.70
2022-09-26T21:44:26.224Z,100094.54
2022-09-26T21:47:51.103Z,100096.08
2022-09-26T21:51:28.390Z,100095.55
2022-09-26T21:55:06.765Z,100089.45
2022-09-26T22:02:18.375Z,100087.55
2022-09-26T22:05:55.136Z,100085.17
2022-09-26T22:09:31.702Z,100084.04
2022-09-26T22:13:09.169Z,100083.30
2022-09-26T22:16:45.670Z,100079.02
2022-09-26T22:20:22.833Z,100079.02
2022-09-26T22:24:00.206Z,100069.69
2022-09-26T22:27:36.535Z,100059.67
2022-09-26T22:31:13.280Z,100054.55
2022-09-26T22:34:49.688Z,100045.70
2022-09-26T22:38:26.677Z,100043.04
2022-09-26T22:42:03.331Z,100042.85
2022-09-26T22:45:40.656Z,100042.76
2022-09-26T22:49:16.549Z,100044.95
2022-09-26T22:52:53.738Z,100049.14
2022-09-26T22:56:30.437Z,100048.08
2022-09-26T23:00:08.259Z,100048.42
2022-09-26T23:03:44.693Z,100044.71
2022-09-26T23:07:21.376Z,100044.34
2022-09-26T23:10:58.016Z,100043.26
2022-09-26T23:14:34.652Z,100036.09
2022-09-26T23:18:11.677Z,100028.11
2022-09-26T23:21:47.917Z,100020.88
2022-09-26T23:25:24.566Z,100019.89
2022-09-26T23:29:01.523Z,100014.69
2022-09-26T23:32:38.216Z,100014.89
2022-09-26T23:36:15.488Z,100017.42
2022-09-26T23:39:52.475Z,100010.77
2022-09-26T23:47:06.555Z,99997.85
2022-09-26T23:50:45.151Z,99999.81
2022-09-26T23:54:19.456Z,99995.60
2022-09-26T23:57:59.344Z,99989.09
